NCAR-RAP Real-Time Weather Data

Output produced by METARs form (08 May 2021  01:49 UTC)
found at http://weather.rap.ucar.edu/surface/
 
KTLH 080053Z 32005KT 10SM CLR 22/06 A3004 RMK AO2 SLP171 T02170061
KTLH 072353Z 33008KT 10SM FEW070 24/04 A3002 RMK AO2 SLP165 FU FEW070 T02440044 10278 20244 55000
KTLH 072253Z 32010G17KT 10SM CLR 26/04 A3001 RMK AO2 SLP162 T02610044
KTLH 072153Z 33012KT 10SM FEW075 27/05 A3001 RMK AO2 PK WND 31028/2109 SLP162 T02670050
KTLH 072053Z 33016G22KT 10SM SCT075 27/07 A3002 RMK AO2 SLP165 T02720072 58018
KTLH 071953Z 31019G23KT 10SM SCT075 27/06 A3005 RMK AO2 SLP173 T02670056
KTLH 071853Z 32016G24KT 10SM FEW070 27/07 A3006 RMK AO2 PK WND 31028/1823 SLP177 T02670067
KTLH 071753Z 31020G25KT 10SM FEW070 27/06 A3008 RMK AO2 SLP184 T02720061 10272 20144 58009
KTLH 071653Z 33017G22KT 10SM CLR 26/08 A3009 RMK AO2 SLP189 T02610078
KTLH 071553Z 32011KT 10SM CLR 24/08 A3010 RMK AO2 SLP193 T02440078
KTLH 071453Z 33008KT 10SM CLR 22/08 A3010 RMK AO2 SLP193 T02220083 51007
KTLH 071353Z 35007KT 10SM CLR 21/09 A3010 RMK AO2 SLP192 T02110089
KTLH 071253Z 33007KT 10SM CLR 18/09 A3009 RMK AO2 SLP189 T01830094
KTLH 071153Z 29003KT 10SM CLR 14/11 A3008 RMK AO2 SLP185 T01440111 10189 20111 53015
KTLH 071053Z 27003KT 10SM CLR 11/09 A3006 RMK AO2 SLP177 T01110094
KTLH 070953Z AUTO 00000KT 10SM CLR 12/10 A3004 RMK AO2 SLP172 T01220100